sensor_id;sensor_type;location;lat;lon;timestamp;P1;durP1;ratioP1;P2;durP2;ratioP2
76640;SDS011;65538;50.798;6.064;2024-02-21T09:40:01;9.03;;;3.40;;
76640;SDS011;65538;50.798;6.064;2024-02-21T09:42:31;7.63;;;3.08;;
76640;SDS011;65538;50.798;6.064;2024-02-21T09:45:01;9.55;;;4.10;;
76640;SDS011;65538;50.798;6.064;2024-02-21T09:47:33;7.63;;;3.38;;
76640;SDS011;65538;50.798;6.064;2024-02-21T09:50:04;8.45;;;3.10;;
76640;SDS011;65538;50.798;6.064;2024-02-21T09:52:29;9.43;;;3.10;;
76640;SDS011;65538;50.798;6.064;2024-02-21T09:54:57;5.72;;;2.45;;
76640;SDS011;65538;50.798;6.064;2024-02-21T09:57:23;7.53;;;2.70;;
76640;SDS011;65538;50.798;6.064;2024-02-21T09:59:49;12.93;;;3.10;;
76640;SDS011;65538;50.798;6.064;2024-02-21T10:02:15;9.43;;;3.03;;
76640;SDS011;65538;50.798;6.064;2024-02-21T10:04:40;9.77;;;4.15;;
76640;SDS011;65538;50.798;6.064;2024-02-21T10:07:06;8.27;;;2.60;;
76640;SDS011;65538;50.798;6.064;2024-02-21T10:09:32;12.15;;;4.82;;
76640;SDS011;65538;50.798;6.064;2024-02-21T10:12:07;9.02;;;4.43;;
76640;SDS011;65538;50.798;6.064;2024-02-21T10:14:33;10.88;;;3.83;;
76640;SDS011;65538;50.798;6.064;2024-02-21T10:16:58;10.57;;;3.20;;
76640;SDS011;65538;50.798;6.064;2024-02-21T10:19:27;7.80;;;3.55;;
76640;SDS011;65538;50.798;6.064;2024-02-21T10:22:06;7.70;;;3.73;;
76640;SDS011;65538;50.798;6.064;2024-02-21T10:24:33;12.00;;;4.35;;
76640;SDS011;65538;50.798;6.064;2024-02-21T10:27:02;8.82;;;3.38;;
76640;SDS011;65538;50.798;6.064;2024-02-21T10:29:28;11.35;;;4.03;;
76640;SDS011;65538;50.798;6.064;2024-02-21T10:32:02;7.57;;;2.93;;
76640;SDS011;65538;50.798;6.064;2024-02-21T10:34:28;12.52;;;4.32;;
76640;SDS011;65538;50.798;6.064;2024-02-21T10:36:59;6.57;;;2.60;;
76640;SDS011;65538;50.798;6.064;2024-02-21T10:39:24;7.80;;;2.72;;
76640;SDS011;65538;50.798;6.064;2024-02-21T10:41:49;8.97;;;3.30;;
76640;SDS011;65538;50.798;6.064;2024-02-21T10:44:15;11.68;;;4.53;;
76640;SDS011;65538;50.798;6.064;2024-02-21T10:46:41;8.48;;;3.20;;
76640;SDS011;65538;50.798;6.064;2024-02-21T10:49:10;11.85;;;3.33;;
76640;SDS011;65538;50.798;6.064;2024-02-21T10:51:36;10.05;;;3.95;;
76640;SDS011;65538;50.798;6.064;2024-02-21T10:54:08;11.02;;;4.53;;
76640;SDS011;65538;50.798;6.064;2024-02-21T10:56:36;10.10;;;3.42;;
76640;SDS011;65538;50.798;6.064;2024-02-21T10:59:06;13.23;;;4.47;;
76640;SDS011;65538;50.798;6.064;2024-02-21T11:01:32;8.23;;;4.45;;
76640;SDS011;65538;50.798;6.064;2024-02-21T11:03:58;11.98;;;3.63;;
76640;SDS011;65538;50.798;6.064;2024-02-21T11:06:24;10.02;;;3.72;;
76640;SDS011;65538;50.798;6.064;2024-02-21T11:09:28;7.13;;;2.97;;
76640;SDS011;65538;50.798;6.064;2024-02-21T11:11:44;9.43;;;4.28;;
76640;SDS011;65538;50.798;6.064;2024-02-21T11:14:20;9.15;;;3.92;;
76640;SDS011;65538;50.798;6.064;2024-02-21T11:16:45;11.38;;;5.13;;
76640;SDS011;65538;50.798;6.064;2024-02-21T11:19:24;10.70;;;4.37;;
76640;SDS011;65538;50.798;6.064;2024-02-21T11:21:49;8.98;;;3.15;;
76640;SDS011;65538;50.798;6.064;2024-02-21T11:26:53;11.93;;;4.75;;
76640;SDS011;65538;50.798;6.064;2024-02-21T11:29:25;11.60;;;2.97;;
76640;SDS011;65538;50.798;6.064;2024-02-21T11:31:51;6.13;;;3.33;;
76640;SDS011;65538;50.798;6.064;2024-02-21T11:34:19;13.35;;;5.13;;
76640;SDS011;65538;50.798;6.064;2024-02-21T11:41:39;16.90;;;5.28;;
76640;SDS011;65538;50.798;6.064;2024-02-21T11:44:04;8.13;;;4.57;;
76640;SDS011;65538;50.798;6.064;2024-02-21T11:46:29;8.33;;;3.30;;
76640;SDS011;65538;50.798;6.064;2024-02-21T11:48:54;9.00;;;3.20;;
76640;SDS011;65538;50.798;6.064;2024-02-21T11:51:29;7.97;;;2.57;;
76640;SDS011;65538;50.798;6.064;2024-02-21T11:53:54;8.88;;;3.38;;
76640;SDS011;65538;50.798;6.064;2024-02-21T11:56:19;8.90;;;3.13;;
76640;SDS011;65538;50.798;6.064;2024-02-21T11:58:48;14.48;;;4.10;;
76640;SDS011;65538;50.798;6.064;2024-02-21T12:01:13;10.85;;;3.63;;
76640;SDS011;65538;50.798;6.064;2024-02-21T12:03:39;7.57;;;2.97;;
76640;SDS011;65538;50.798;6.064;2024-02-21T12:06:06;9.63;;;3.75;;
76640;SDS011;65538;50.798;6.064;2024-02-21T12:08:41;9.27;;;3.37;;
76640;SDS011;65538;50.798;6.064;2024-02-21T12:11:18;11.68;;;3.67;;
76640;SDS011;65538;50.798;6.064;2024-02-21T12:13:43;8.40;;;3.53;;
76640;SDS011;65538;50.798;6.064;2024-02-21T12:16:08;8.37;;;3.47;;
76640;SDS011;65538;50.798;6.064;2024-02-21T12:18:34;10.93;;;4.17;;
76640;SDS011;65538;50.798;6.064;2024-02-21T12:20:59;6.55;;;2.72;;
76640;SDS011;65538;50.798;6.064;2024-02-21T12:23:28;9.82;;;2.85;;
76640;SDS011;65538;50.798;6.064;2024-02-21T12:25:54;12.18;;;4.10;;
76640;SDS011;65538;50.798;6.064;2024-02-21T12:28:19;12.73;;;2.80;;
76640;SDS011;65538;50.798;6.064;2024-02-21T12:30:45;12.97;;;3.37;;
76640;SDS011;65538;50.798;6.064;2024-02-21T12:33:10;9.10;;;2.90;;
76640;SDS011;65538;50.798;6.064;2024-02-21T12:35:35;7.90;;;3.47;;
76640;SDS011;65538;50.798;6.064;2024-02-21T12:38:00;10.73;;;3.53;;
76640;SDS011;65538;50.798;6.064;2024-02-21T12:40:26;6.13;;;2.80;;
76640;SDS011;65538;50.798;6.064;2024-02-21T12:42:57;7.43;;;2.58;;
76640;SDS011;65538;50.798;6.064;2024-02-21T12:45:22;9.30;;;3.33;;
76640;SDS011;65538;50.798;6.064;2024-02-21T12:47:47;6.27;;;3.17;;
76640;SDS011;65538;50.798;6.064;2024-02-21T12:50:13;12.07;;;3.73;;
76640;SDS011;65538;50.798;6.064;2024-02-21T12:52:40;3.45;;;1.63;;
76640;SDS011;65538;50.798;6.064;2024-02-21T12:55:05;8.07;;;2.97;;
76640;SDS011;65538;50.798;6.064;2024-02-21T12:57:30;6.53;;;2.77;;
76640;SDS011;65538;50.798;6.064;2024-02-21T12:59:55;6.10;;;3.23;;
76640;SDS011;65538;50.798;6.064;2024-02-21T13:02:21;7.43;;;3.17;;
76640;SDS011;65538;50.798;6.064;2024-02-21T13:04:46;8.07;;;3.00;;
76640;SDS011;65538;50.798;6.064;2024-02-21T13:07:11;11.15;;;3.72;;
76640;SDS011;65538;50.798;6.064;2024-02-21T13:09:36;12.67;;;4.47;;
76640;SDS011;65538;50.798;6.064;2024-02-21T13:12:02;9.00;;;3.50;;
76640;SDS011;65538;50.798;6.064;2024-02-21T13:14:27;6.82;;;2.47;;
76640;SDS011;65538;50.798;6.064;2024-02-21T13:16:53;6.60;;;3.03;;
76640;SDS011;65538;50.798;6.064;2024-02-21T13:19:18;10.97;;;3.20;;
76640;SDS011;65538;50.798;6.064;2024-02-21T13:21:43;6.73;;;3.07;;
76640;SDS011;65538;50.798;6.064;2024-02-21T13:24:08;10.00;;;2.73;;
76640;SDS011;65538;50.798;6.064;2024-02-21T13:26:33;7.00;;;2.93;;
76640;SDS011;65538;50.798;6.064;2024-02-21T13:28:59;9.20;;;3.40;;
76640;SDS011;65538;50.798;6.064;2024-02-21T13:31:24;9.17;;;3.00;;
76640;SDS011;65538;50.798;6.064;2024-02-21T13:33:50;8.20;;;2.45;;
76640;SDS011;65538;50.798;6.064;2024-02-21T13:36:15;6.80;;;2.90;;
76640;SDS011;65538;50.798;6.064;2024-02-21T13:38:40;10.90;;;2.40;;
76640;SDS011;65538;50.798;6.064;2024-02-21T13:41:05;7.23;;;2.53;;
76640;SDS011;65538;50.798;6.064;2024-02-21T13:43:34;9.48;;;2.72;;
76640;SDS011;65538;50.798;6.064;2024-02-21T13:46:00;5.07;;;2.50;;
76640;SDS011;65538;50.798;6.064;2024-02-21T13:48:26;5.63;;;2.47;;
76640;SDS011;65538;50.798;6.064;2024-02-21T13:50:55;7.47;;;2.15;;
76640;SDS011;65538;50.798;6.064;2024-02-21T13:53:20;6.50;;;2.63;;
76640;SDS011;65538;50.798;6.064;2024-02-21T13:55:46;8.98;;;2.42;;
76640;SDS011;65538;50.798;6.064;2024-02-21T13:58:11;9.03;;;2.37;;
76640;SDS011;65538;50.798;6.064;2024-02-21T14:00:36;6.90;;;3.10;;
76640;SDS011;65538;50.798;6.064;2024-02-21T14:03:02;4.67;;;1.83;;
76640;SDS011;65538;50.798;6.064;2024-02-21T14:05:27;7.28;;;2.25;;
76640;SDS011;65538;50.798;6.064;2024-02-21T14:07:52;8.50;;;2.43;;
76640;SDS011;65538;50.798;6.064;2024-02-21T14:10:19;5.32;;;2.30;;
76640;SDS011;65538;50.798;6.064;2024-02-21T14:12:44;8.20;;;2.43;;
76640;SDS011;65538;50.798;6.064;2024-02-21T14:15:10;6.60;;;2.17;;
76640;SDS011;65538;50.798;6.064;2024-02-21T14:17:35;7.50;;;3.20;;
76640;SDS011;65538;50.798;6.064;2024-02-21T14:20:01;6.53;;;2.23;;
76640;SDS011;65538;50.798;6.064;2024-02-21T14:22:26;9.18;;;2.97;;
76640;SDS011;65538;50.798;6.064;2024-02-21T14:24:51;6.27;;;2.10;;
76640;SDS011;65538;50.798;6.064;2024-02-21T14:27:16;8.17;;;2.87;;
76640;SDS011;65538;50.798;6.064;2024-02-21T14:29:42;5.67;;;2.27;;
76640;SDS011;65538;50.798;6.064;2024-02-21T14:32:07;8.13;;;2.23;;
76640;SDS011;65538;50.798;6.064;2024-02-21T14:34:34;5.38;;;1.95;;
76640;SDS011;65538;50.798;6.064;2024-02-21T14:37:00;7.53;;;2.10;;
76640;SDS011;65538;50.798;6.064;2024-02-21T14:39:25;4.30;;;1.93;;
76640;SDS011;65538;50.798;6.064;2024-02-21T14:41:50;7.27;;;2.33;;
76640;SDS011;65538;50.798;6.064;2024-02-21T14:44:15;5.93;;;1.88;;
76640;SDS011;65538;50.798;6.064;2024-02-21T14:46:41;4.00;;;1.67;;
76640;SDS011;65538;50.798;6.064;2024-02-21T14:49:06;5.23;;;1.30;;
76640;SDS011;65538;50.798;6.064;2024-02-21T14:51:31;5.77;;;2.43;;
76640;SDS011;65538;50.798;6.064;2024-02-21T14:53:57;4.65;;;1.33;;
76640;SDS011;65538;50.798;6.064;2024-02-21T14:56:22;6.73;;;2.03;;
76640;SDS011;65538;50.798;6.064;2024-02-21T14:58:48;5.55;;;2.22;;
76640;SDS011;65538;50.798;6.064;2024-02-21T15:01:14;3.63;;;1.37;;
76640;SDS011;65538;50.798;6.064;2024-02-21T15:03:39;4.80;;;1.60;;
76640;SDS011;65538;50.798;6.064;2024-02-21T15:06:04;5.07;;;1.77;;
76640;SDS011;65538;50.798;6.064;2024-02-21T15:08:29;4.57;;;2.13;;
76640;SDS011;65538;50.798;6.064;2024-02-21T15:10:54;5.40;;;1.53;;
76640;SDS011;65538;50.798;6.064;2024-02-21T15:13:20;6.93;;;2.67;;
76640;SDS011;65538;50.798;6.064;2024-02-21T15:15:46;3.70;;;1.63;;
76640;SDS011;65538;50.798;6.064;2024-02-21T15:18:13;5.85;;;2.20;;
76640;SDS011;65538;50.798;6.064;2024-02-21T15:20:38;7.47;;;2.10;;
76640;SDS011;65538;50.798;6.064;2024-02-21T15:23:03;4.30;;;1.47;;
76640;SDS011;65538;50.798;6.064;2024-02-21T15:25:29;9.48;;;1.92;;
76640;SDS011;65538;50.798;6.064;2024-02-21T15:27:55;6.10;;;2.00;;
76640;SDS011;65538;50.798;6.064;2024-02-21T15:30:21;3.97;;;1.70;;
76640;SDS011;65538;50.798;6.064;2024-02-21T15:32:46;3.70;;;1.27;;
76640;SDS011;65538;50.798;6.064;2024-02-21T15:35:11;3.27;;;1.20;;
76640;SDS011;65538;50.798;6.064;2024-02-21T15:37:36;7.17;;;1.57;;
76640;SDS011;65538;50.798;6.064;2024-02-21T15:40:02;6.57;;;2.47;;
76640;SDS011;65538;50.798;6.064;2024-02-21T15:42:28;5.07;;;2.30;;
76640;SDS011;65538;50.798;6.064;2024-02-21T15:44:53;3.60;;;1.40;;
76640;SDS011;65538;50.798;6.064;2024-02-21T15:47:18;5.90;;;1.93;;
76640;SDS011;65538;50.798;6.064;2024-02-21T15:49:48;5.60;;;1.75;;
76640;SDS011;65538;50.798;6.064;2024-02-21T15:52:13;4.23;;;1.60;;
76640;SDS011;65538;50.798;6.064;2024-02-21T15:54:38;9.97;;;1.67;;
76640;SDS011;65538;50.798;6.064;2024-02-21T15:57:04;8.50;;;1.37;;
76640;SDS011;65538;50.798;6.064;2024-02-21T15:59:31;5.40;;;2.00;;
76640;SDS011;65538;50.798;6.064;2024-02-21T16:01:56;7.57;;;2.28;;
76640;SDS011;65538;50.798;6.064;2024-02-21T16:04:22;8.43;;;1.75;;
76640;SDS011;65538;50.798;6.064;2024-02-21T16:06:48;4.95;;;1.63;;
76640;SDS011;65538;50.798;6.064;2024-02-21T16:09:16;3.83;;;1.73;;
76640;SDS011;65538;50.798;6.064;2024-02-21T16:11:41;5.45;;;2.00;;
76640;SDS011;65538;50.798;6.064;2024-02-21T16:14:07;7.70;;;2.60;;
76640;SDS011;65538;50.798;6.064;2024-02-21T16:16:32;12.83;;;3.33;;
76640;SDS011;65538;50.798;6.064;2024-02-21T16:18:57;5.47;;;2.00;;
76640;SDS011;65538;50.798;6.064;2024-02-21T16:21:22;7.17;;;2.77;;
76640;SDS011;65538;50.798;6.064;2024-02-21T16:23:49;4.13;;;1.77;;
76640;SDS011;65538;50.798;6.064;2024-02-21T16:26:14;6.77;;;2.37;;
76640;SDS011;65538;50.798;6.064;2024-02-21T16:28:39;8.60;;;2.30;;
76640;SDS011;65538;50.798;6.064;2024-02-21T16:31:04;8.53;;;2.83;;
76640;SDS011;65538;50.798;6.064;2024-02-21T16:33:30;8.17;;;2.40;;
76640;SDS011;65538;50.798;6.064;2024-02-21T16:35:55;12.93;;;2.23;;
76640;SDS011;65538;50.798;6.064;2024-02-21T16:38:20;6.57;;;2.70;;
76640;SDS011;65538;50.798;6.064;2024-02-21T16:40:45;5.90;;;2.20;;
76640;SDS011;65538;50.798;6.064;2024-02-21T16:43:11;9.73;;;3.07;;
76640;SDS011;65538;50.798;6.064;2024-02-21T16:45:36;8.15;;;3.20;;
76640;SDS011;65538;50.798;6.064;2024-02-21T16:48:02;4.77;;;2.50;;
76640;SDS011;65538;50.798;6.064;2024-02-21T16:50:28;8.43;;;2.67;;
76640;SDS011;65538;50.798;6.064;2024-02-21T16:52:53;12.20;;;2.50;;
76640;SDS011;65538;50.798;6.064;2024-02-21T16:55:19;7.38;;;3.00;;
76640;SDS011;65538;50.798;6.064;2024-02-21T16:57:44;10.00;;;3.90;;
76640;SDS011;65538;50.798;6.064;2024-02-21T17:00:10;7.03;;;3.50;;
76640;SDS011;65538;50.798;6.064;2024-02-21T17:02:41;7.80;;;2.58;;
76640;SDS011;65538;50.798;6.064;2024-02-21T17:05:07;8.45;;;3.83;;
76640;SDS011;65538;50.798;6.064;2024-02-21T17:07:33;11.20;;;3.85;;
76640;SDS011;65538;50.798;6.064;2024-02-21T17:09:58;7.68;;;3.35;;
76640;SDS011;65538;50.798;6.064;2024-02-21T17:12:24;9.23;;;3.45;;
76640;SDS011;65538;50.798;6.064;2024-02-21T17:14:49;8.10;;;2.70;;
76640;SDS011;65538;50.798;6.064;2024-02-21T17:17:14;9.37;;;3.70;;
76640;SDS011;65538;50.798;6.064;2024-02-21T17:19:39;5.50;;;2.23;;
76640;SDS011;65538;50.798;6.064;2024-02-21T17:22:05;7.30;;;3.17;;
76640;SDS011;65538;50.798;6.064;2024-02-21T17:24:30;9.57;;;4.15;;
76640;SDS011;65538;50.798;6.064;2024-02-21T17:26:55;13.57;;;5.17;;
76640;SDS011;65538;50.798;6.064;2024-02-21T17:29:21;14.03;;;4.50;;
76640;SDS011;65538;50.798;6.064;2024-02-21T17:31:46;9.53;;;3.60;;
76640;SDS011;65538;50.798;6.064;2024-02-21T17:34:11;9.73;;;3.93;;
76640;SDS011;65538;50.798;6.064;2024-02-21T17:36:36;9.13;;;3.95;;
76640;SDS011;65538;50.798;6.064;2024-02-21T17:39:02;10.07;;;4.03;;
76640;SDS011;65538;50.798;6.064;2024-02-21T17:41:27;9.48;;;4.43;;
76640;SDS011;65538;50.798;6.064;2024-02-21T17:43:52;9.73;;;3.67;;
76640;SDS011;65538;50.798;6.064;2024-02-21T17:46:18;9.63;;;3.00;;
76640;SDS011;65538;50.798;6.064;2024-02-21T17:48:43;8.10;;;3.10;;
76640;SDS011;65538;50.798;6.064;2024-02-21T17:51:08;5.47;;;3.07;;
76640;SDS011;65538;50.798;6.064;2024-02-21T17:53:33;13.63;;;4.73;;
76640;SDS011;65538;50.798;6.064;2024-02-21T17:55:58;8.40;;;4.27;;
76640;SDS011;65538;50.798;6.064;2024-02-21T17:58:23;11.90;;;4.47;;
76640;SDS011;65538;50.798;6.064;2024-02-21T18:00:49;9.02;;;4.03;;
76640;SDS011;65538;50.798;6.064;2024-02-21T18:03:15;10.90;;;4.50;;
76640;SDS011;65538;50.798;6.064;2024-02-21T18:05:41;11.43;;;4.40;;
76640;SDS011;65538;50.798;6.064;2024-02-21T18:08:06;9.53;;;3.20;;
76640;SDS011;65538;50.798;6.064;2024-02-21T18:10:32;7.30;;;3.97;;
76640;SDS011;65538;50.798;6.064;2024-02-21T18:12:57;11.23;;;4.83;;
76640;SDS011;65538;50.798;6.064;2024-02-21T18:15:27;9.93;;;4.30;;
76640;SDS011;65538;50.798;6.064;2024-02-21T18:17:53;9.63;;;3.30;;
76640;SDS011;65538;50.798;6.064;2024-02-21T18:20:18;10.47;;;3.37;;
76640;SDS011;65538;50.798;6.064;2024-02-21T18:22:43;7.37;;;3.90;;
76640;SDS011;65538;50.798;6.064;2024-02-21T18:25:11;8.43;;;4.10;;
76640;SDS011;65538;50.798;6.064;2024-02-21T18:27:36;9.00;;;4.35;;
76640;SDS011;65538;50.798;6.064;2024-02-21T18:30:03;12.73;;;4.43;;
76640;SDS011;65538;50.798;6.064;2024-02-21T18:32:28;8.85;;;3.05;;
76640;SDS011;65538;50.798;6.064;2024-02-21T18:34:53;8.37;;;2.90;;
76640;SDS011;65538;50.798;6.064;2024-02-21T18:37:19;9.35;;;4.40;;
76640;SDS011;65538;50.798;6.064;2024-02-21T18:39:44;7.17;;;3.60;;
76640;SDS011;65538;50.798;6.064;2024-02-21T18:42:09;8.83;;;2.90;;
76640;SDS011;65538;50.798;6.064;2024-02-21T18:44:34;8.90;;;4.43;;
76640;SDS011;65538;50.798;6.064;2024-02-21T18:47:00;9.80;;;3.83;;
76640;SDS011;65538;50.798;6.064;2024-02-21T18:49:25;9.63;;;3.20;;
76640;SDS011;65538;50.798;6.064;2024-02-21T18:51:50;8.43;;;3.85;;
76640;SDS011;65538;50.798;6.064;2024-02-21T18:54:16;8.40;;;4.20;;
76640;SDS011;65538;50.798;6.064;2024-02-21T18:56:47;8.90;;;3.90;;
76640;SDS011;65538;50.798;6.064;2024-02-21T18:59:12;5.82;;;3.15;;
76640;SDS011;65538;50.798;6.064;2024-02-21T19:01:38;8.93;;;4.57;;
76640;SDS011;65538;50.798;6.064;2024-02-21T19:04:03;9.97;;;4.07;;
76640;SDS011;65538;50.798;6.064;2024-02-21T19:06:28;6.17;;;3.53;;
76640;SDS011;65538;50.798;6.064;2024-02-21T19:08:53;6.57;;;3.13;;
76640;SDS011;65538;50.798;6.064;2024-02-21T19:11:18;18.00;;;3.83;;
76640;SDS011;65538;50.798;6.064;2024-02-21T19:13:44;6.87;;;4.00;;
76640;SDS011;65538;50.798;6.064;2024-02-21T19:16:09;5.40;;;3.00;;
76640;SDS011;65538;50.798;6.064;2024-02-21T19:18:35;5.05;;;3.10;;
76640;SDS011;65538;50.798;6.064;2024-02-21T19:21:01;6.30;;;4.10;;
76640;SDS011;65538;50.798;6.064;2024-02-21T19:23:26;6.57;;;4.03;;
76640;SDS011;65538;50.798;6.064;2024-02-21T19:25:53;5.63;;;3.55;;
76640;SDS011;65538;50.798;6.064;2024-02-21T19:28:18;6.87;;;4.10;;
76640;SDS011;65538;50.798;6.064;2024-02-21T19:30:45;5.72;;;3.85;;
76640;SDS011;65538;50.798;6.064;2024-02-21T19:33:11;5.18;;;2.63;;
76640;SDS011;65538;50.798;6.064;2024-02-21T19:35:36;7.33;;;3.47;;
76640;SDS011;65538;50.798;6.064;2024-02-21T19:38:02;4.25;;;2.33;;
76640;SDS011;65538;50.798;6.064;2024-02-21T19:40:31;4.45;;;2.28;;
76640;SDS011;65538;50.798;6.064;2024-02-21T19:42:59;9.48;;;3.15;;
76640;SDS011;65538;50.798;6.064;2024-02-21T19:45:26;6.40;;;2.80;;
76640;SDS011;65538;50.798;6.064;2024-02-21T19:47:51;5.63;;;3.13;;
76640;SDS011;65538;50.798;6.064;2024-02-21T19:50:16;5.97;;;2.60;;
76640;SDS011;65538;50.798;6.064;2024-02-21T19:52:46;5.38;;;2.80;;
76640;SDS011;65538;50.798;6.064;2024-02-21T19:55:11;5.77;;;2.80;;
76640;SDS011;65538;50.798;6.064;2024-02-21T19:57:36;6.93;;;2.70;;
76640;SDS011;65538;50.798;6.064;2024-02-21T20:00:03;6.47;;;3.53;;
76640;SDS011;65538;50.798;6.064;2024-02-21T20:02:31;6.05;;;2.25;;
76640;SDS011;65538;50.798;6.064;2024-02-21T20:04:57;3.95;;;2.35;;
76640;SDS011;65538;50.798;6.064;2024-02-21T20:07:22;5.13;;;2.97;;
76640;SDS011;65538;50.798;6.064;2024-02-21T20:09:47;4.90;;;3.07;;
76640;SDS011;65538;50.798;6.064;2024-02-21T20:12:14;3.75;;;2.10;;
76640;SDS011;65538;50.798;6.064;2024-02-21T20:14:41;4.10;;;2.42;;
76640;SDS011;65538;50.798;6.064;2024-02-21T20:17:07;4.77;;;2.70;;
76640;SDS011;65538;50.798;6.064;2024-02-21T20:19:32;5.03;;;3.03;;
76640;SDS011;65538;50.798;6.064;2024-02-21T20:21:58;5.10;;;2.53;;
76640;SDS011;65538;50.798;6.064;2024-02-21T20:24:23;3.58;;;2.03;;
76640;SDS011;65538;50.798;6.064;2024-02-21T20:26:48;3.20;;;2.30;;
76640;SDS011;65538;50.798;6.064;2024-02-21T20:29:14;4.87;;;2.43;;
76640;SDS011;65538;50.798;6.064;2024-02-21T20:31:41;3.00;;;1.80;;
76640;SDS011;65538;50.798;6.064;2024-02-21T20:34:11;3.70;;;1.75;;
76640;SDS011;65538;50.798;6.064;2024-02-21T20:36:36;4.63;;;1.50;;
76640;SDS011;65538;50.798;6.064;2024-02-21T20:39:01;3.97;;;2.00;;
76640;SDS011;65538;50.798;6.064;2024-02-21T20:41:26;2.90;;;2.00;;
76640;SDS011;65538;50.798;6.064;2024-02-21T20:43:51;2.43;;;1.20;;
76640;SDS011;65538;50.798;6.064;2024-02-21T20:46:17;2.70;;;1.60;;
76640;SDS011;65538;50.798;6.064;2024-02-21T20:48:42;3.57;;;2.33;;
76640;SDS011;65538;50.798;6.064;2024-02-21T20:51:08;2.72;;;1.40;;
76640;SDS011;65538;50.798;6.064;2024-02-21T20:53:33;2.33;;;1.30;;
76640;SDS011;65538;50.798;6.064;2024-02-21T20:55:59;3.90;;;1.73;;
76640;SDS011;65538;50.798;6.064;2024-02-21T20:58:24;2.20;;;0.83;;
76640;SDS011;65538;50.798;6.064;2024-02-21T21:00:50;4.20;;;1.10;;
76640;SDS011;65538;50.798;6.064;2024-02-21T21:03:15;2.70;;;1.60;;
76640;SDS011;65538;50.798;6.064;2024-02-21T21:05:40;2.53;;;1.63;;
76640;SDS011;65538;50.798;6.064;2024-02-21T21:08:08;3.17;;;1.95;;
76640;SDS011;65538;50.798;6.064;2024-02-21T21:10:33;2.13;;;1.37;;
76640;SDS011;65538;50.798;6.064;2024-02-21T21:12:58;1.57;;;0.97;;
76640;SDS011;65538;50.798;6.064;2024-02-21T21:15:25;2.17;;;1.20;;
76640;SDS011;65538;50.798;6.064;2024-02-21T21:17:53;2.92;;;1.20;;
76640;SDS011;65538;50.798;6.064;2024-02-21T21:20:18;2.23;;;1.13;;
76640;SDS011;65538;50.798;6.064;2024-02-21T21:22:44;2.72;;;1.58;;
76640;SDS011;65538;50.798;6.064;2024-02-21T21:25:09;2.20;;;1.43;;
76640;SDS011;65538;50.798;6.064;2024-02-21T21:27:35;2.63;;;1.40;;
76640;SDS011;65538;50.798;6.064;2024-02-21T21:30:00;2.78;;;1.35;;
76640;SDS011;65538;50.798;6.064;2024-02-21T21:32:25;2.80;;;1.20;;
76640;SDS011;65538;50.798;6.064;2024-02-21T21:34:51;3.22;;;1.33;;
76640;SDS011;65538;50.798;6.064;2024-02-21T21:37:16;2.50;;;1.30;;
76640;SDS011;65538;50.798;6.064;2024-02-21T21:39:41;2.77;;;1.17;;
76640;SDS011;65538;50.798;6.064;2024-02-21T21:42:08;3.50;;;1.23;;
76640;SDS011;65538;50.798;6.064;2024-02-21T21:44:34;1.60;;;1.00;;
76640;SDS011;65538;50.798;6.064;2024-02-21T21:46:59;2.00;;;0.80;;
76640;SDS011;65538;50.798;6.064;2024-02-21T21:49:24;2.20;;;1.40;;
76640;SDS011;65538;50.798;6.064;2024-02-21T21:51:49;2.60;;;1.20;;
76640;SDS011;65538;50.798;6.064;2024-02-21T21:54:15;2.07;;;1.00;;
76640;SDS011;65538;50.798;6.064;2024-02-21T21:56:40;1.87;;;1.03;;
76640;SDS011;65538;50.798;6.064;2024-02-21T21:59:05;3.00;;;0.97;;
76640;SDS011;65538;50.798;6.064;2024-02-21T22:04:05;2.15;;;1.10;;
76640;SDS011;65538;50.798;6.064;2024-02-21T22:06:30;2.10;;;1.10;;
76640;SDS011;65538;50.798;6.064;2024-02-21T22:08:56;2.83;;;1.25;;
76640;SDS011;65538;50.798;6.064;2024-02-21T22:11:21;2.33;;;1.25;;
76640;SDS011;65538;50.798;6.064;2024-02-21T22:13:47;1.63;;;0.90;;
76640;SDS011;65538;50.798;6.064;2024-02-21T22:16:13;1.70;;;0.80;;
76640;SDS011;65538;50.798;6.064;2024-02-21T22:18:39;1.20;;;0.73;;
76640;SDS011;65538;50.798;6.064;2024-02-21T22:21:04;3.67;;;1.08;;
76640;SDS011;65538;50.798;6.064;2024-02-21T22:23:30;2.93;;;1.00;;
76640;SDS011;65538;50.798;6.064;2024-02-21T22:25:55;1.70;;;1.13;;
76640;SDS011;65538;50.798;6.064;2024-02-21T22:28:20;5.23;;;1.10;;
76640;SDS011;65538;50.798;6.064;2024-02-21T22:30:47;3.20;;;1.25;;
76640;SDS011;65538;50.798;6.064;2024-02-21T22:33:12;2.00;;;1.40;;
76640;SDS011;65538;50.798;6.064;2024-02-21T22:35:37;2.43;;;1.17;;
76640;SDS011;65538;50.798;6.064;2024-02-21T22:38:02;1.97;;;0.87;;
76640;SDS011;65538;50.798;6.064;2024-02-21T22:40:28;1.50;;;0.65;;
76640;SDS011;65538;50.798;6.064;2024-02-21T22:42:54;1.77;;;1.00;;
76640;SDS011;65538;50.798;6.064;2024-02-21T22:45:19;1.80;;;0.67;;
76640;SDS011;65538;50.798;6.064;2024-02-21T22:47:45;5.23;;;1.00;;
76640;SDS011;65538;50.798;6.064;2024-02-21T22:50:12;1.75;;;1.23;;
76640;SDS011;65538;50.798;6.064;2024-02-21T22:52:37;2.00;;;0.60;;
76640;SDS011;65538;50.798;6.064;2024-02-21T22:55:02;1.67;;;0.87;;
76640;SDS011;65538;50.798;6.064;2024-02-21T22:57:27;1.50;;;0.90;;
76640;SDS011;65538;50.798;6.064;2024-02-21T22:59:52;1.40;;;0.90;;
76640;SDS011;65538;50.798;6.064;2024-02-21T23:02:18;3.30;;;0.70;;
76640;SDS011;65538;50.798;6.064;2024-02-21T23:04:43;1.30;;;0.67;;
76640;SDS011;65538;50.798;6.064;2024-02-21T23:07:08;2.43;;;0.70;;
76640;SDS011;65538;50.798;6.064;2024-02-21T23:09:33;1.85;;;1.08;;
76640;SDS011;65538;50.798;6.064;2024-02-21T23:11:59;1.67;;;0.98;;
76640;SDS011;65538;50.798;6.064;2024-02-21T23:14:24;1.00;;;0.70;;
76640;SDS011;65538;50.798;6.064;2024-02-21T23:16:49;1.93;;;1.07;;
76640;SDS011;65538;50.798;6.064;2024-02-21T23:19:15;1.53;;;0.60;;
76640;SDS011;65538;50.798;6.064;2024-02-21T23:21:42;1.83;;;1.05;;
76640;SDS011;65538;50.798;6.064;2024-02-21T23:24:08;0.90;;;0.40;;
76640;SDS011;65538;50.798;6.064;2024-02-21T23:26:33;1.10;;;0.53;;
76640;SDS011;65538;50.798;6.064;2024-02-21T23:28:59;2.13;;;0.77;;
76640;SDS011;65538;50.798;6.064;2024-02-21T23:31:24;2.85;;;1.17;;
76640;SDS011;65538;50.798;6.064;2024-02-21T23:33:49;1.43;;;0.73;;
76640;SDS011;65538;50.798;6.064;2024-02-21T23:36:14;1.20;;;0.67;;
76640;SDS011;65538;50.798;6.064;2024-02-21T23:38:40;1.00;;;0.50;;
76640;SDS011;65538;50.798;6.064;2024-02-21T23:41:05;2.00;;;0.90;;
76640;SDS011;65538;50.798;6.064;2024-02-21T23:43:36;1.20;;;0.73;;
76640;SDS011;65538;50.798;6.064;2024-02-21T23:46:04;2.25;;;0.82;;
76640;SDS011;65538;50.798;6.064;2024-02-21T23:48:29;1.15;;;0.40;;
76640;SDS011;65538;50.798;6.064;2024-02-21T23:50:54;1.20;;;0.77;;
76640;SDS011;65538;50.798;6.064;2024-02-21T23:53:20;1.53;;;0.83;;
76640;SDS011;65538;50.798;6.064;2024-02-21T23:55:45;1.50;;;0.90;;
76640;SDS011;65538;50.798;6.064;2024-02-21T23:58:10;1.13;;;0.70;;
